createdAt,value
2023-01-05T00:01:02.572Z,10.70
2023-01-05T00:05:04.179Z,10.70
2023-01-05T00:09:06.528Z,10.80
2023-01-05T00:13:27.292Z,10.70
2023-01-05T00:17:47.499Z,10.70
2023-01-05T00:22:07.459Z,10.70
2023-01-05T00:26:08.990Z,10.60
2023-01-05T00:30:11.602Z,10.70
2023-01-05T00:34:13.154Z,10.70
2023-01-05T00:38:14.704Z,10.70
2023-01-05T00:42:16.293Z,10.60
2023-01-05T00:46:17.865Z,10.70
2023-01-05T00:50:19.806Z,10.60
2023-01-05T00:54:21.476Z,10.60
2023-01-05T00:58:23.074Z,10.60
2023-01-05T01:02:24.799Z,10.60
2023-01-05T01:06:27.712Z,10.60
2023-01-05T01:10:29.338Z,10.60
2023-01-05T01:14:30.916Z,10.60
2023-01-05T01:18:32.504Z,10.70
2023-01-05T01:22:34.127Z,10.60
2023-01-05T01:26:35.666Z,10.60
2023-01-05T01:30:38.115Z,10.70
2023-01-05T01:34:39.860Z,10.60
2023-01-05T01:38:41.446Z,10.70
2023-01-05T01:42:42.998Z,10.70
2023-01-05T01:46:44.539Z,10.70
2023-01-05T01:50:51.745Z,10.70
2023-01-05T01:54:53.754Z,10.60
2023-01-05T01:58:55.415Z,10.60
2023-01-05T02:02:57.436Z,10.60
2023-01-05T02:06:59.315Z,10.60
2023-01-05T02:11:19.437Z,10.70
2023-01-05T02:15:42.088Z,10.70
2023-01-05T02:19:46.687Z,10.60
2023-01-05T02:23:48.246Z,10.60
2023-01-05T02:27:55.026Z,10.70
2023-01-05T02:32:07.734Z,10.60
2023-01-05T02:36:28.154Z,10.60
2023-01-05T02:40:33.501Z,10.60
2023-01-05T02:44:35.064Z,10.60
2023-01-05T02:48:37.232Z,10.60
2023-01-05T02:52:59.140Z,10.60
2023-01-05T02:57:03.817Z,10.50
2023-01-05T03:01:21.200Z,10.60
2023-01-05T03:05:25.619Z,10.60
2023-01-05T03:09:29.047Z,10.60
2023-01-05T03:13:49.689Z,10.60
2023-01-05T03:17:54.407Z,10.50
2023-01-05T03:22:15.804Z,10.50
2023-01-05T03:26:36.074Z,10.60
2023-01-05T03:31:05.325Z,10.50
2023-01-05T03:35:31.629Z,10.50
2023-01-05T03:39:34.085Z,10.50
2023-01-05T03:43:36.186Z,10.50
2023-01-05T03:47:37.800Z,10.40
2023-01-05T03:51:41.891Z,10.40
2023-01-05T03:55:43.898Z,10.50
2023-01-05T03:59:45.532Z,10.40
2023-01-05T04:03:47.321Z,10.40
2023-01-05T12:55:57.420Z,11.30
2023-01-05T13:00:14.324Z,11.20
2023-01-05T13:04:26.997Z,11.20
2023-01-05T13:08:33.462Z,11.20
2023-01-05T13:12:35.880Z,11.20
2023-01-05T13:16:42.585Z,11.20
2023-01-05T13:20:46.800Z,11.30
2023-01-05T13:25:14.777Z,11.20
2023-01-05T13:29:34.812Z,11.20
2023-01-05T13:33:45.221Z,11.20
2023-01-05T13:37:49.846Z,11.20
2023-01-05T13:42:01.238Z,11.30
2023-01-05T13:46:02.735Z,11.30
2023-01-05T13:50:10.398Z,11.20
2023-01-05T13:54:21.165Z,11.30
2023-01-05T13:58:41.728Z,11.40
2023-01-05T14:02:45.027Z,11.30
2023-01-05T14:06:48.762Z,11.20
2023-01-05T14:11:07.256Z,11.30
2023-01-05T14:15:09.448Z,11.30
2023-01-05T14:19:18.971Z,11.20
2023-01-05T14:23:23.772Z,11.20
2023-01-05T14:27:25.422Z,11.20
2023-01-05T14:31:36.262Z,11.30
2023-01-05T14:35:38.226Z,11.30
2023-01-05T14:39:42.070Z,11.40
2023-01-05T14:43:43.686Z,11.40
2023-01-05T14:47:47.064Z,11.40
2023-01-05T14:51:56.089Z,11.30
2023-01-05T14:55:58.062Z,11.30
2023-01-05T15:00:08.968Z,11.30
2023-01-05T15:04:17.200Z,11.20
2023-01-05T15:08:29.704Z,11.20
2023-01-05T15:12:35.664Z,11.10
2023-01-05T15:16:48.584Z,11.10
2023-01-05T15:21:00.694Z,11.10
2023-01-05T15:25:02.429Z,11.00
2023-01-05T15:29:32.137Z,11.00
2023-01-05T15:33:46.301Z,10.90
2023-01-05T15:37:48.986Z,11.00
2023-01-05T15:41:51.524Z,10.90
2023-01-05T15:45:53.623Z,10.80
2023-01-05T15:49:59.715Z,10.80
2023-01-05T15:54:04.560Z,10.80
2023-01-05T15:58:14.552Z,10.70
2023-01-05T16:02:27.511Z,10.70
2023-01-05T16:06:29.245Z,10.80
2023-01-05T16:10:36.888Z,10.60
2023-01-05T16:14:44.881Z,10.60
2023-01-05T16:18:49.930Z,10.50
2023-01-05T16:22:57.976Z,10.40
2023-01-05T16:27:04.165Z,10.40
2023-01-05T16:31:12.374Z,10.40
2023-01-05T16:35:35.220Z,10.40
2023-01-05T16:39:40.403Z,10.30
2023-01-05T16:43:51.165Z,10.30
2023-01-05T16:47:54.611Z,10.30
2023-01-05T16:51:56.832Z,10.30
2023-01-05T16:56:00.771Z,10.30
2023-01-05T17:00:03.471Z,10.20
2023-01-05T17:04:15.246Z,10.30
2023-01-05T17:08:19.477Z,10.20
2023-01-05T17:12:21.169Z,10.30
2023-01-05T17:16:22.863Z,10.30
2023-01-05T17:20:26.628Z,10.30
2023-01-05T17:24:35.801Z,10.30
2023-01-05T17:28:42.242Z,10.30
2023-01-05T17:32:44.882Z,10.20
2023-01-05T17:36:53.052Z,10.30
2023-01-05T17:41:11.261Z,10.20
2023-01-05T17:45:33.185Z,10.20
2023-01-05T17:49:35.002Z,10.20
2023-01-05T17:53:36.581Z,10.30
2023-01-05T17:57:38.687Z,10.40
2023-01-05T18:01:40.297Z,10.40
2023-01-05T18:09:44.886Z,10.40
2023-01-05T18:13:46.443Z,10.40
2023-01-05T18:17:48.327Z,10.40
2023-01-05T18:21:49.927Z,10.40
2023-01-05T18:25:51.512Z,10.40
2023-01-05T18:29:53.549Z,10.40
2023-01-05T18:33:55.147Z,10.40
2023-01-05T18:37:59.553Z,10.40
2023-01-05T18:42:02.296Z,10.40
2023-01-05T18:46:03.994Z,10.50
2023-01-05T18:50:08.646Z,10.50
2023-01-05T18:54:13.516Z,10.40
2023-01-05T18:58:15.478Z,10.50
2023-01-05T19:02:17.235Z,10.50
2023-01-05T19:06:20.385Z,10.50
2023-01-05T19:10:22.130Z,10.50
2023-01-05T19:14:23.754Z,10.50
2023-01-05T19:18:26.655Z,10.50
2023-01-05T19:22:28.323Z,10.50
2023-01-05T19:26:31.476Z,10.60
2023-01-05T19:30:33.112Z,10.60
2023-01-05T19:34:34.696Z,10.60
2023-01-05T19:38:36.623Z,10.60
2023-01-05T19:42:38.940Z,10.60
2023-01-05T19:46:41.030Z,10.70
2023-01-05T19:50:42.604Z,10.70
2023-01-05T19:54:44.468Z,10.70
2023-01-05T19:58:50.288Z,10.70
2023-01-05T20:02:52.026Z,10.70
2023-01-05T20:06:53.726Z,10.70
2023-01-05T20:10:55.332Z,10.70
2023-01-05T20:14:56.867Z,10.70
2023-01-05T20:18:58.971Z,10.80
2023-01-05T20:23:00.533Z,10.80
2023-01-05T20:27:04.043Z,10.80
2023-01-05T20:31:06.554Z,10.80
2023-01-05T20:35:11.196Z,10.80
2023-01-05T20:39:14.444Z,10.90
2023-01-05T20:43:16.036Z,10.80
2023-01-05T20:47:17.953Z,10.90
2023-01-05T20:51:21.492Z,10.80
2023-01-05T20:55:23.127Z,10.80
2023-01-05T20:59:27.439Z,10.80
2023-01-05T21:03:29.342Z,10.90
2023-01-05T21:07:31.178Z,10.90
2023-01-05T21:11:32.954Z,10.90
2023-01-05T21:15:34.477Z,10.90
2023-01-05T21:19:36.046Z,10.80
2023-01-05T21:23:37.961Z,10.90
2023-01-05T21:27:44.030Z,11.00
2023-01-05T21:31:45.669Z,10.90
2023-01-05T21:35:56.022Z,10.90
2023-01-05T21:39:59.846Z,10.90
2023-01-05T21:44:02.272Z,10.90
2023-01-05T21:48:03.936Z,11.00
2023-01-05T21:52:24.194Z,10.90
2023-01-05T21:56:26.057Z,10.90
2023-01-05T22:00:27.650Z,10.80
2023-01-05T22:04:29.223Z,10.80
2023-01-05T22:08:30.781Z,10.80
2023-01-05T22:12:32.323Z,10.70
2023-01-05T22:16:33.950Z,10.70
2023-01-05T22:20:35.603Z,10.70
2023-01-05T22:24:38.375Z,10.60
2023-01-05T22:28:40.693Z,10.60
2023-01-05T22:32:42.248Z,10.50
2023-01-05T22:36:43.932Z,10.50
2023-01-05T22:40:52.327Z,10.50
2023-01-05T22:44:53.881Z,10.60
2023-01-05T22:48:56.206Z,10.60
2023-01-05T22:52:57.752Z,10.60
2023-01-05T22:56:59.300Z,10.70
2023-01-05T23:01:10.269Z,10.70
2023-01-05T23:05:13.997Z,10.80
2023-01-05T23:09:16.152Z,10.80
2023-01-05T23:13:17.695Z,10.80
2023-01-05T23:17:19.227Z,10.70
2023-01-05T23:21:22.477Z,10.70
2023-01-05T23:25:26.479Z,10.70
2023-01-05T23:29:32.444Z,10.70
2023-01-05T23:33:35.649Z,10.70
2023-01-05T23:37:37.270Z,10.60
2023-01-05T23:41:38.847Z,10.60
2023-01-05T23:45:42.910Z,10.60
2023-01-05T23:49:44.712Z,10.60
2023-01-05T23:53:47.513Z,10.50
2023-01-05T23:57:49.085Z,10.50
